createdAt,value
2018-10-18T00:01:17.791Z,14.87
2018-10-18T00:03:46.446Z,13.80
2018-10-18T00:06:15.335Z,14.60
2018-10-18T00:08:43.971Z,13.03
2018-10-18T00:11:13.472Z,14.90
2018-10-18T00:13:42.200Z,15.20
2018-10-18T00:16:11.546Z,15.70
2018-10-18T00:18:40.619Z,14.20
2018-10-18T00:21:09.984Z,14.40
2018-10-18T00:23:39.234Z,15.15
2018-10-18T00:26:08.629Z,15.20
2018-10-18T00:28:37.206Z,15.83
2018-10-18T00:31:06.120Z,14.40
2018-10-18T00:33:35.120Z,14.23
2018-10-18T00:36:04.578Z,15.27
2018-10-18T00:38:34.046Z,15.00
2018-10-18T00:41:02.797Z,14.87
2018-10-18T00:43:31.836Z,15.10
2018-10-18T00:46:00.728Z,13.10
2018-10-18T00:48:29.410Z,13.70
2018-10-18T00:50:58.461Z,13.43
2018-10-18T00:53:27.186Z,13.27
2018-10-18T00:55:56.156Z,13.13
2018-10-18T00:58:25.955Z,13.53
2018-10-18T01:00:54.632Z,13.87
2018-10-18T01:03:23.750Z,14.37
2018-10-18T01:05:52.949Z,14.58
2018-10-18T01:08:23.358Z,14.93
2018-10-18T01:10:53.131Z,13.20
2018-10-18T01:13:21.800Z,13.90
2018-10-18T01:15:50.493Z,13.03
2018-10-18T01:18:19.739Z,14.60
2018-10-18T01:20:48.373Z,14.57
2018-10-18T01:23:17.676Z,15.70
2018-10-18T01:25:46.653Z,14.37
2018-10-18T01:28:15.809Z,14.53
2018-10-18T01:30:44.616Z,14.43
2018-10-18T01:33:13.392Z,14.57
2018-10-18T01:35:42.992Z,13.50
2018-10-18T01:38:11.910Z,13.50
2018-10-18T01:40:40.521Z,13.83
2018-10-18T01:43:09.757Z,13.13
2018-10-18T01:45:38.486Z,13.22
2018-10-18T01:48:08.381Z,12.95
2018-10-18T01:50:37.027Z,14.00
2018-10-18T01:53:06.252Z,13.40
2018-10-18T01:55:36.672Z,13.30
2018-10-18T01:58:06.031Z,13.60
2018-10-18T02:00:34.888Z,14.57
2018-10-18T02:03:04.412Z,14.10
2018-10-18T02:05:33.851Z,13.20
2018-10-18T02:08:02.742Z,14.75
2018-10-18T02:10:31.807Z,13.87
2018-10-18T02:13:00.884Z,14.10
2018-10-18T02:15:29.603Z,13.03
2018-10-18T02:17:58.461Z,14.03
2018-10-18T02:20:27.737Z,13.20
2018-10-18T02:22:56.794Z,13.73
2018-10-18T02:25:25.893Z,13.80
2018-10-18T02:27:54.539Z,12.45
2018-10-18T02:30:23.627Z,13.50
2018-10-18T02:32:52.819Z,13.53
2018-10-18T02:35:22.083Z,13.57
2018-10-18T02:37:51.247Z,14.00
2018-10-18T02:40:20.153Z,14.17
2018-10-18T02:42:48.812Z,14.83
2018-10-18T02:45:18.071Z,13.90
2018-10-18T02:47:47.366Z,13.05
2018-10-18T02:50:16.336Z,13.23
2018-10-18T02:52:45.773Z,13.30
2018-10-18T02:55:14.529Z,11.90
2018-10-18T02:57:44.043Z,13.75
2018-10-18T03:00:13.476Z,14.80
2018-10-18T03:02:42.850Z,13.70
2018-10-18T03:05:11.781Z,12.53
2018-10-18T03:07:41.122Z,13.70
2018-10-18T03:10:10.197Z,14.10
2018-10-18T03:12:38.772Z,13.40
2018-10-18T03:15:08.693Z,13.83
2018-10-18T03:17:37.887Z,12.90
2018-10-18T03:20:06.732Z,11.53
2018-10-18T03:22:35.369Z,13.70
2018-10-18T03:25:04.674Z,13.70
2018-10-18T03:27:33.730Z,14.17
2018-10-18T03:30:03.533Z,14.47
2018-10-18T03:32:32.267Z,13.60
2018-10-18T03:35:01.044Z,12.93
2018-10-18T03:37:30.674Z,12.37
2018-10-18T03:39:59.994Z,13.73
2018-10-18T03:42:29.153Z,13.70
2018-10-18T03:44:58.406Z,13.60
2018-10-18T03:47:27.057Z,13.63
2018-10-18T03:49:55.956Z,13.30
2018-10-18T03:52:25.053Z,13.30
2018-10-18T03:54:54.343Z,13.73
2018-10-18T03:57:23.623Z,12.83
2018-10-18T03:59:52.980Z,12.30
2018-10-18T04:02:21.927Z,13.47
2018-10-18T04:04:51.100Z,13.93
2018-10-18T04:07:20.259Z,12.93
2018-10-18T04:09:49.062Z,12.40
2018-10-18T04:12:18.279Z,13.80
2018-10-18T04:14:47.084Z,12.53
2018-10-18T04:17:16.200Z,13.80
2018-10-18T04:19:45.528Z,13.10
2018-10-18T04:22:14.293Z,14.13
2018-10-18T04:24:42.979Z,13.40
2018-10-18T04:27:11.648Z,12.33
2018-10-18T04:29:41.389Z,13.60
2018-10-18T04:32:10.304Z,12.23
2018-10-18T04:34:39.047Z,11.07
2018-10-18T04:37:07.766Z,13.20
2018-10-18T04:39:36.707Z,12.87
2018-10-18T04:42:05.846Z,12.53
2018-10-18T04:44:34.755Z,13.37
2018-10-18T04:47:04.183Z,14.23
2018-10-18T04:49:33.183Z,14.10
2018-10-18T04:52:02.812Z,14.60
2018-10-18T04:54:31.711Z,13.87
2018-10-18T04:57:00.937Z,14.00
2018-10-18T04:59:29.660Z,14.60
2018-10-18T05:01:58.308Z,13.00
2018-10-18T05:04:27.068Z,14.17
2018-10-18T05:06:55.932Z,12.63
2018-10-18T05:09:26.297Z,14.23
2018-10-18T05:11:55.275Z,13.43
2018-10-18T05:14:24.597Z,13.63
2018-10-18T05:16:54.617Z,13.87
2018-10-18T05:19:24.150Z,12.83
2018-10-18T05:21:53.084Z,12.90
2018-10-18T05:24:22.074Z,13.57
2018-10-18T05:26:50.704Z,13.80
2018-10-18T05:29:19.602Z,13.72
2018-10-18T05:31:48.327Z,14.47
2018-10-18T05:34:17.237Z,15.60
2018-10-18T05:36:46.499Z,16.97
2018-10-18T05:39:15.283Z,15.73
2018-10-18T05:41:45.553Z,15.10
2018-10-18T05:44:14.219Z,15.53
2018-10-18T05:46:43.435Z,14.17
2018-10-18T05:49:12.625Z,14.73
2018-10-18T05:51:41.888Z,13.93
2018-10-18T05:54:10.782Z,14.30
2018-10-18T05:56:40.457Z,13.50
2018-10-18T05:59:09.650Z,15.60
2018-10-18T06:01:39.134Z,17.67
2018-10-18T06:04:08.114Z,17.48
2018-10-18T06:06:37.197Z,16.73
2018-10-18T06:09:09.913Z,16.90
2018-10-18T06:11:38.648Z,16.13
2018-10-18T06:14:07.344Z,24.43
2018-10-18T06:16:36.969Z,18.77
2018-10-18T06:19:06.512Z,17.30
2018-10-18T06:21:35.363Z,17.98
2018-10-18T06:24:04.717Z,17.90
2018-10-18T06:26:34.148Z,19.87
2018-10-18T06:29:03.688Z,19.90
2018-10-18T06:31:33.518Z,20.67
2018-10-18T06:34:02.550Z,21.27
2018-10-18T06:36:31.705Z,20.27
2018-10-18T06:39:00.710Z,20.33
2018-10-18T06:41:29.516Z,19.80
2018-10-18T06:43:58.405Z,20.47
2018-10-18T06:46:27.590Z,31.17
2018-10-18T06:48:57.083Z,23.83
2018-10-18T06:51:25.714Z,21.30
2018-10-18T06:53:54.548Z,17.53
2018-10-18T06:56:23.529Z,16.30
2018-10-18T06:58:52.976Z,17.30
2018-10-18T07:01:21.628Z,15.67
2018-10-18T07:03:51.662Z,17.23
2018-10-18T07:06:20.459Z,17.33
2018-10-18T07:08:49.345Z,17.40
2018-10-18T07:11:18.068Z,14.93
2018-10-18T07:13:47.108Z,16.37
2018-10-18T07:16:16.349Z,15.97
2018-10-18T07:18:45.154Z,16.70
2018-10-18T07:21:13.958Z,15.13
2018-10-18T07:23:43.093Z,14.83
2018-10-18T07:26:12.111Z,14.77
2018-10-18T07:28:41.043Z,15.63
2018-10-18T07:31:09.852Z,15.57
2018-10-18T07:33:38.880Z,15.13
2018-10-18T07:36:07.871Z,15.83
2018-10-18T07:38:36.910Z,13.70
2018-10-18T07:41:05.952Z,14.57
2018-10-18T07:43:35.795Z,15.90
2018-10-18T07:46:05.234Z,13.90
2018-10-18T07:48:34.243Z,14.97
2018-10-18T07:51:03.908Z,14.67
2018-10-18T07:53:32.820Z,13.97
2018-10-18T07:56:02.020Z,14.57
2018-10-18T07:58:31.339Z,12.93
2018-10-18T08:01:00.668Z,15.80
2018-10-18T08:03:30.003Z,14.00
2018-10-18T08:05:58.749Z,13.55
2018-10-18T08:08:28.099Z,13.93
2018-10-18T08:10:57.326Z,13.57
2018-10-18T08:13:26.777Z,13.33
2018-10-18T08:15:55.902Z,12.20
2018-10-18T08:18:25.288Z,17.27
2018-10-18T08:20:54.222Z,13.53
2018-10-18T08:23:23.088Z,12.83
2018-10-18T08:25:51.741Z,14.00
2018-10-18T08:28:20.655Z,13.30
2018-10-18T08:30:53.266Z,12.07
2018-10-18T08:33:23.193Z,13.50
2018-10-18T08:35:52.214Z,13.00
2018-10-18T08:38:21.991Z,12.93
2018-10-18T08:40:51.255Z,14.63
2018-10-18T08:43:21.128Z,13.43
2018-10-18T08:45:50.784Z,14.13
2018-10-18T08:48:20.438Z,14.65
2018-10-18T08:50:49.944Z,15.13
2018-10-18T08:53:18.570Z,13.65
2018-10-18T08:55:48.185Z,15.67
2018-10-18T08:58:16.994Z,16.03
2018-10-18T09:00:46.610Z,14.83
2018-10-18T09:03:15.708Z,16.40
2018-10-18T09:05:44.469Z,14.60
2018-10-18T09:08:14.179Z,15.87
2018-10-18T09:10:43.029Z,15.63
2018-10-18T09:13:11.848Z,15.87
2018-10-18T09:15:40.589Z,14.90
2018-10-18T09:18:09.277Z,15.70
2018-10-18T09:20:38.405Z,16.80
2018-10-18T09:23:07.294Z,16.42
2018-10-18T09:25:36.883Z,15.93
2018-10-18T09:28:06.248Z,15.67
2018-10-18T09:30:35.381Z,15.27
2018-10-18T09:33:04.264Z,16.53
2018-10-18T09:35:33.000Z,16.13
2018-10-18T09:38:01.891Z,17.13
2018-10-18T09:40:30.763Z,16.97
2018-10-18T09:42:59.579Z,17.67
2018-10-18T09:45:28.963Z,17.83
2018-10-18T09:47:57.935Z,18.67
2018-10-18T09:50:27.159Z,19.43
2018-10-18T09:52:56.372Z,19.53
2018-10-18T09:55:25.091Z,19.10
2018-10-18T09:57:53.850Z,19.67
2018-10-18T10:00:28.371Z,18.93
2018-10-18T10:03:03.011Z,19.37
2018-10-18T10:05:32.229Z,18.77
2018-10-18T10:08:01.449Z,18.53
2018-10-18T10:10:30.760Z,16.87
2018-10-18T10:12:59.559Z,16.80
2018-10-18T10:15:28.376Z,16.20
2018-10-18T10:17:58.285Z,16.80
2018-10-18T10:20:27.740Z,14.68
2018-10-18T10:22:56.775Z,15.60
2018-10-18T10:25:26.187Z,15.37
2018-10-18T10:27:55.304Z,15.27
2018-10-18T10:30:24.543Z,14.90
2018-10-18T10:32:54.110Z,14.30
2018-10-18T10:35:22.923Z,15.85
2018-10-18T10:37:52.024Z,14.90
2018-10-18T10:40:21.492Z,14.30
2018-10-18T10:42:50.663Z,14.60
2018-10-18T10:45:20.019Z,14.75
2018-10-18T10:47:48.996Z,14.60
2018-10-18T10:50:17.791Z,14.40
2018-10-18T10:52:47.435Z,13.10
2018-10-18T10:55:16.861Z,12.37
2018-10-18T10:57:45.749Z,12.20
2018-10-18T11:00:28.701Z,14.53
2018-10-18T11:02:57.770Z,13.50
2018-10-18T11:05:27.210Z,14.33
2018-10-18T11:07:56.518Z,14.80
2018-10-18T11:10:25.571Z,14.38
2018-10-18T11:12:55.879Z,15.13
2018-10-18T11:15:25.065Z,15.35
2018-10-18T11:17:54.854Z,13.32
2018-10-18T11:20:23.557Z,13.83
2018-10-18T11:22:53.142Z,12.55
2018-10-18T11:27:51.184Z,12.10
2018-10-18T11:30:20.236Z,12.28
2018-10-18T11:32:48.816Z,11.88
2018-10-18T11:35:17.537Z,10.20
2018-10-18T11:37:47.111Z,10.43
2018-10-18T11:40:16.587Z,9.38
2018-10-18T11:42:45.642Z,9.58
2018-10-18T11:45:14.547Z,9.55
2018-10-18T11:47:43.439Z,9.88
2018-10-18T11:50:12.302Z,8.83
2018-10-18T11:52:41.295Z,10.45
2018-10-18T11:55:10.479Z,9.78
2018-10-18T11:57:39.260Z,10.27
2018-10-18T12:00:10.947Z,9.63
2018-10-18T12:02:40.516Z,8.40
2018-10-18T12:05:09.457Z,10.38
2018-10-18T12:07:38.435Z,11.25
2018-10-18T12:10:08.273Z,11.33
2018-10-18T12:12:38.070Z,12.15
2018-10-18T12:15:09.034Z,13.13
2018-10-18T12:17:37.780Z,13.53
2018-10-18T12:20:08.497Z,12.60
2018-10-18T12:22:37.159Z,12.33
2018-10-18T12:25:06.269Z,11.00
2018-10-18T12:27:35.281Z,11.53
2018-10-18T12:30:05.051Z,10.45
2018-10-18T12:32:34.749Z,11.57
2018-10-18T12:35:04.177Z,10.78
2018-10-18T12:37:33.149Z,10.00
2018-10-18T12:40:02.652Z,10.38
2018-10-18T12:42:31.925Z,9.38
2018-10-18T12:45:00.899Z,10.80
2018-10-18T12:47:30.169Z,10.13
2018-10-18T12:49:58.911Z,9.90
2018-10-18T12:52:27.752Z,9.48
2018-10-18T12:54:56.824Z,9.18
2018-10-18T12:57:26.019Z,9.70
2018-10-18T12:59:55.005Z,8.78
2018-10-18T13:02:23.833Z,9.70
2018-10-18T13:04:53.084Z,9.10
2018-10-18T13:07:21.995Z,9.95
2018-10-18T13:09:50.906Z,9.88
2018-10-18T13:12:19.646Z,9.20
2018-10-18T13:14:48.632Z,10.75
2018-10-18T13:17:17.935Z,11.90
2018-10-18T13:19:48.365Z,11.80
2018-10-18T13:22:17.234Z,13.32
2018-10-18T13:24:48.126Z,14.30
2018-10-18T13:27:16.828Z,16.80
2018-10-18T13:29:45.602Z,14.87
2018-10-18T13:32:14.407Z,13.90
2018-10-18T13:34:43.156Z,14.23
2018-10-18T13:37:12.033Z,14.60
2018-10-18T13:39:40.860Z,15.00
2018-10-18T13:42:10.480Z,16.40
2018-10-18T13:44:39.383Z,15.60
2018-10-18T13:47:08.198Z,14.17
2018-10-18T13:49:37.056Z,14.37
2018-10-18T13:52:05.931Z,13.97
2018-10-18T13:54:35.453Z,14.70
2018-10-18T13:57:05.481Z,13.07
2018-10-18T13:59:45.266Z,13.10
2018-10-18T14:02:14.075Z,13.93
2018-10-18T14:04:42.547Z,12.20
2018-10-18T14:07:11.637Z,11.90
2018-10-18T14:09:40.508Z,11.60
2018-10-18T14:12:09.250Z,11.77
2018-10-18T14:14:38.717Z,13.00
2018-10-18T14:17:08.061Z,13.47
2018-10-18T14:19:37.062Z,12.90
2018-10-18T14:22:07.423Z,15.27
2018-10-18T14:24:36.606Z,15.23
2018-10-18T14:27:05.875Z,15.03
2018-10-18T14:29:34.722Z,14.83
2018-10-18T14:32:03.450Z,15.80
2018-10-18T14:34:32.233Z,16.37
2018-10-18T14:37:01.779Z,16.55
2018-10-18T14:39:30.959Z,17.60
2018-10-18T14:42:00.295Z,18.37
2018-10-18T14:44:29.178Z,17.80
2018-10-18T14:46:58.919Z,17.45
2018-10-18T14:49:27.962Z,20.07
2018-10-18T14:51:57.632Z,18.80
2018-10-18T14:54:26.443Z,19.50
2018-10-18T14:56:55.567Z,18.90
2018-10-18T14:59:24.425Z,17.97
2018-10-18T15:01:53.970Z,18.77
2018-10-18T15:04:23.550Z,18.43
2018-10-18T15:06:52.305Z,20.03
2018-10-18T15:09:21.912Z,17.47
2018-10-18T15:11:50.941Z,18.37
2018-10-18T15:14:20.222Z,16.50
2018-10-18T15:16:49.280Z,19.02
2018-10-18T15:19:18.168Z,17.80
2018-10-18T15:21:47.012Z,19.73
2018-10-18T15:24:15.997Z,21.33
2018-10-18T15:26:46.016Z,20.85
2018-10-18T15:29:15.503Z,19.73
2018-10-18T15:31:44.588Z,18.10
2018-10-18T15:34:13.310Z,18.90
2018-10-18T15:36:42.333Z,20.87
2018-10-18T15:39:12.268Z,20.60
2018-10-18T15:41:41.669Z,20.77
2018-10-18T15:44:12.159Z,19.60
2018-10-18T15:46:40.936Z,19.53
2018-10-18T15:49:10.388Z,20.00
2018-10-18T15:51:39.479Z,19.83
2018-10-18T15:54:08.642Z,18.40
2018-10-18T15:56:37.653Z,18.00
2018-10-18T15:59:07.156Z,16.80
2018-10-18T16:01:36.376Z,17.70
2018-10-18T16:04:05.618Z,16.60
2018-10-18T16:06:35.768Z,17.17
2018-10-18T16:09:08.058Z,16.43
2018-10-18T16:11:37.044Z,15.80
2018-10-18T16:14:06.380Z,16.67
2018-10-18T16:16:35.258Z,17.57
2018-10-18T16:19:04.374Z,17.60
2018-10-18T16:21:33.978Z,16.23
2018-10-18T16:24:02.777Z,19.00
2018-10-18T16:26:31.810Z,17.53
2018-10-18T16:29:01.719Z,18.93
2018-10-18T16:31:30.532Z,18.98
2018-10-18T16:33:59.511Z,17.60
2018-10-18T16:36:28.467Z,17.82
2018-10-18T16:38:57.697Z,19.40
2018-10-18T16:41:27.500Z,18.93
2018-10-18T16:43:56.350Z,17.90
2018-10-18T16:46:25.332Z,21.80
2018-10-18T16:48:55.442Z,21.83
2018-10-18T16:51:24.457Z,19.00
2018-10-18T16:53:53.521Z,20.23
2018-10-18T16:56:22.456Z,19.90
2018-10-18T16:58:51.763Z,19.27
2018-10-18T17:01:20.601Z,20.80
2018-10-18T17:03:49.453Z,19.57
2018-10-18T17:06:18.906Z,17.30
2018-10-18T17:08:48.707Z,18.63
2018-10-18T17:11:17.810Z,17.37
2018-10-18T17:13:46.731Z,17.60
2018-10-18T17:16:15.753Z,16.70
2018-10-18T17:18:44.644Z,15.90
2018-10-18T17:21:13.531Z,16.60
2018-10-18T17:23:42.583Z,16.60
2018-10-18T17:26:12.972Z,16.40
2018-10-18T17:28:42.008Z,16.77
2018-10-18T17:31:11.339Z,17.33
2018-10-18T17:33:41.731Z,15.90
2018-10-18T17:36:10.752Z,14.50
2018-10-18T17:38:40.765Z,16.20
2018-10-18T17:41:10.174Z,15.20
2018-10-18T17:43:39.346Z,15.37
2018-10-18T17:46:09.764Z,14.93
2018-10-18T17:48:38.833Z,16.82
2018-10-18T17:51:08.572Z,15.50
2018-10-18T17:53:37.486Z,15.30
2018-10-18T17:56:06.695Z,16.50
2018-10-18T17:58:35.739Z,17.20
2018-10-18T18:01:04.928Z,16.53
2018-10-18T18:03:34.062Z,16.17
2018-10-18T18:06:03.389Z,16.73
2018-10-18T18:08:32.788Z,16.50
2018-10-18T18:11:01.830Z,17.20
2018-10-18T18:13:31.002Z,16.87
2018-10-18T18:16:00.315Z,15.63
2018-10-18T18:18:29.233Z,16.07
2018-10-18T18:20:58.236Z,18.27
2018-10-18T18:23:27.071Z,17.20
2018-10-18T18:25:55.970Z,16.40
2018-10-18T18:28:25.471Z,17.03
2018-10-18T18:30:54.645Z,16.70
2018-10-18T18:33:23.842Z,16.43
2018-10-18T18:35:52.902Z,17.33
2018-10-18T18:38:22.165Z,17.70
2018-10-18T18:40:51.402Z,17.60
2018-10-18T18:43:21.552Z,17.63
2018-10-18T18:45:50.882Z,17.00
2018-10-18T18:48:20.044Z,17.50
2018-10-18T18:50:50.401Z,16.47
2018-10-18T18:53:19.559Z,18.47
2018-10-18T18:55:48.640Z,16.23
2018-10-18T18:58:17.486Z,17.50
2018-10-18T19:00:47.327Z,18.80
2018-10-18T19:03:16.436Z,19.67
2018-10-18T19:05:46.745Z,18.97
2018-10-18T19:08:16.111Z,17.97
2018-10-18T19:10:44.933Z,18.83
2018-10-18T19:13:13.920Z,19.87
2018-10-18T19:15:43.480Z,18.57
2018-10-18T19:18:12.721Z,18.60
2018-10-18T19:20:41.910Z,18.73
2018-10-18T19:23:11.214Z,20.23
2018-10-18T19:25:40.508Z,21.50
2018-10-18T19:28:09.710Z,18.47
2018-10-18T19:30:39.011Z,19.10
2018-10-18T19:33:07.947Z,19.32
2018-10-18T19:35:36.867Z,20.67
2018-10-18T19:38:05.898Z,18.50
2018-10-18T19:40:34.742Z,19.47
2018-10-18T19:43:04.199Z,21.60
2018-10-18T19:45:33.341Z,21.07
2018-10-18T19:48:02.461Z,21.43
2018-10-18T19:50:31.642Z,23.00
2018-10-18T19:53:01.010Z,22.83
2018-10-18T19:55:30.093Z,22.80
2018-10-18T19:57:59.425Z,22.53
2018-10-18T20:00:28.708Z,22.37
2018-10-18T20:02:57.722Z,23.90
2018-10-18T20:05:26.999Z,21.93
2018-10-18T20:07:56.121Z,24.33
2018-10-18T20:10:26.411Z,21.90
2018-10-18T20:12:57.318Z,22.20
2018-10-18T20:15:26.352Z,23.50
2018-10-18T20:17:57.043Z,21.60
2018-10-18T20:20:26.254Z,21.50
2018-10-18T20:22:55.454Z,21.27
2018-10-18T20:25:25.683Z,23.00
2018-10-18T20:27:55.411Z,20.90
2018-10-18T20:30:25.065Z,24.13
2018-10-18T20:32:54.249Z,23.03
2018-10-18T20:35:23.418Z,23.27
2018-10-18T20:37:52.559Z,21.30
2018-10-18T20:40:21.770Z,22.37
2018-10-18T20:42:50.885Z,22.17
2018-10-18T20:45:24.945Z,24.27
2018-10-18T20:47:55.226Z,21.57
2018-10-18T20:50:24.934Z,22.57
2018-10-18T20:52:53.990Z,21.37
2018-10-18T20:55:24.025Z,23.27
2018-10-18T20:57:53.606Z,22.90
2018-10-18T21:00:22.671Z,23.63
2018-10-18T21:02:51.397Z,22.60
2018-10-18T21:05:20.376Z,21.63
2018-10-18T21:07:50.338Z,22.30
2018-10-18T21:10:20.001Z,24.43
2018-10-18T21:12:48.836Z,23.93
2018-10-18T21:15:17.975Z,24.20
2018-10-18T21:17:47.381Z,22.83
2018-10-18T21:20:16.320Z,23.03
2018-10-18T21:22:45.521Z,23.40
2018-10-18T21:25:16.738Z,24.50
2018-10-18T21:27:45.515Z,26.57
2018-10-18T21:30:14.357Z,24.33
2018-10-18T21:32:43.856Z,24.70
2018-10-18T21:35:12.832Z,22.97
2018-10-18T21:37:41.799Z,22.90
2018-10-18T21:40:11.104Z,22.07
2018-10-18T21:42:40.323Z,23.37
2018-10-18T21:45:26.179Z,23.43
2018-10-18T21:47:56.284Z,23.50
2018-10-18T21:50:25.026Z,25.60
2018-10-18T21:52:55.779Z,23.33
2018-10-18T21:55:24.855Z,23.00
2018-10-18T21:57:53.769Z,22.77
2018-10-18T22:00:23.448Z,25.00
2018-10-18T22:02:52.601Z,22.90
2018-10-18T22:05:21.950Z,23.25
2018-10-18T22:07:51.565Z,24.30
2018-10-18T22:10:20.474Z,23.07
2018-10-18T22:12:49.536Z,23.70
2018-10-18T22:15:18.612Z,22.63
2018-10-18T22:17:47.929Z,22.00
2018-10-18T22:20:17.143Z,22.47
2018-10-18T22:22:45.898Z,21.90
2018-10-18T22:25:15.551Z,21.33
2018-10-18T22:27:44.807Z,21.87
2018-10-18T22:30:13.944Z,21.65
2018-10-18T22:32:42.605Z,22.83
2018-10-18T22:35:11.258Z,22.37
2018-10-18T22:37:40.686Z,22.67
2018-10-18T22:40:10.127Z,21.93
2018-10-18T22:42:39.059Z,22.40
2018-10-18T22:45:09.051Z,22.50
2018-10-18T22:47:38.541Z,21.13
2018-10-18T22:50:08.009Z,22.23
2018-10-18T22:52:38.044Z,21.43
2018-10-18T22:55:07.264Z,21.62
2018-10-18T22:57:36.719Z,23.50
2018-10-18T23:00:06.780Z,23.80
2018-10-18T23:02:36.002Z,23.70
2018-10-18T23:05:05.157Z,24.73
2018-10-18T23:07:34.555Z,23.62
2018-10-18T23:10:04.479Z,22.83
2018-10-18T23:12:33.860Z,21.47
2018-10-18T23:15:03.247Z,21.27
2018-10-18T23:17:32.103Z,22.50
2018-10-18T23:20:01.294Z,22.23
2018-10-18T23:22:30.894Z,23.77
2018-10-18T23:24:59.771Z,22.30
2018-10-18T23:27:31.941Z,22.30
2018-10-18T23:30:01.085Z,22.27
2018-10-18T23:32:30.344Z,22.42
2018-10-18T23:34:59.458Z,22.30
2018-10-18T23:37:28.681Z,24.20
2018-10-18T23:39:57.834Z,22.95
2018-10-18T23:42:26.634Z,21.17
2018-10-18T23:44:55.605Z,21.47
2018-10-18T23:47:24.951Z,20.43
2018-10-18T23:49:53.952Z,20.67
2018-10-18T23:52:23.104Z,21.00
2018-10-18T23:54:52.776Z,20.50
2018-10-18T23:57:21.598Z,20.47
2018-10-18T23:59:51.166Z,21.60
